createdAt,value
2017-12-01T00:00:46.288Z,20.40
2017-12-01T00:03:14.142Z,20.27
2017-12-01T00:05:42.011Z,23.57
2017-12-01T00:08:09.885Z,22.40
2017-12-01T00:10:37.715Z,22.90
2017-12-01T00:13:05.547Z,23.90
2017-12-01T00:15:40.311Z,23.13
2017-12-01T00:18:08.135Z,23.53
2017-12-01T00:20:35.960Z,24.90
2017-12-01T00:23:03.846Z,24.60
2017-12-01T00:25:31.684Z,26.33
2017-12-01T00:27:59.554Z,24.97
2017-12-01T00:30:27.415Z,25.40
2017-12-01T00:32:55.244Z,26.17
2017-12-01T00:35:23.093Z,23.23
2017-12-01T00:37:51.000Z,25.53
2017-12-01T00:40:18.853Z,25.00
2017-12-01T00:42:46.675Z,22.87
2017-12-01T00:45:14.536Z,26.33
2017-12-01T00:47:42.364Z,25.10
2017-12-01T00:50:10.191Z,23.90
2017-12-01T00:52:38.055Z,24.53
2017-12-01T00:55:05.919Z,25.80
2017-12-01T00:57:33.795Z,21.37
2017-12-01T01:00:01.675Z,26.27
2017-12-01T01:02:29.532Z,22.83
2017-12-01T01:04:57.372Z,22.90
2017-12-01T01:07:25.273Z,23.20
2017-12-01T01:09:53.122Z,25.97
2017-12-01T01:12:20.968Z,26.37
2017-12-01T01:14:48.848Z,25.93
2017-12-01T01:17:16.672Z,24.50
2017-12-01T01:19:44.547Z,23.90
2017-12-01T01:22:12.448Z,27.37
2017-12-01T01:24:40.289Z,26.30
2017-12-01T01:27:08.124Z,26.00
2017-12-01T01:29:35.984Z,23.73
2017-12-01T01:32:04.784Z,25.30
2017-12-01T01:34:32.639Z,26.33
2017-12-01T01:37:00.507Z,25.53
2017-12-01T01:39:28.346Z,24.70
2017-12-01T01:41:56.180Z,22.33
2017-12-01T01:44:24.051Z,23.60
2017-12-01T01:46:51.889Z,27.40
2017-12-01T01:49:19.748Z,24.47
2017-12-01T01:51:47.611Z,21.23
2017-12-01T01:54:15.452Z,24.53
2017-12-01T01:56:43.286Z,24.90
2017-12-01T01:59:11.233Z,26.10
2017-12-01T02:01:39.079Z,25.77
2017-12-01T02:04:06.920Z,29.93
2017-12-01T02:06:34.779Z,30.07
2017-12-01T02:09:02.632Z,28.27
2017-12-01T02:11:30.471Z,30.90
2017-12-01T02:13:58.336Z,27.47
2017-12-01T02:16:26.176Z,26.60
2017-12-01T02:18:54.048Z,24.53
2017-12-01T02:21:21.915Z,28.80
2017-12-01T02:23:49.759Z,27.90
2017-12-01T02:26:17.586Z,29.57
2017-12-01T02:28:45.448Z,26.13
2017-12-01T02:31:13.283Z,26.63
2017-12-01T02:33:41.127Z,27.70
2017-12-01T02:36:08.992Z,27.53
2017-12-01T02:38:36.819Z,25.70
2017-12-01T02:41:04.647Z,24.90
2017-12-01T02:43:32.519Z,27.57
2017-12-01T02:46:00.387Z,25.97
2017-12-01T02:48:28.208Z,26.90
2017-12-01T02:50:56.060Z,26.70
2017-12-01T02:53:23.907Z,26.30
2017-12-01T02:55:51.731Z,25.20
2017-12-01T02:58:19.628Z,27.00
2017-12-01T03:00:47.492Z,25.10
2017-12-01T03:03:15.328Z,24.17
2017-12-01T03:05:43.175Z,25.40
2017-12-01T03:08:11.009Z,25.27
2017-12-01T03:10:38.853Z,26.53
2017-12-01T03:13:06.707Z,27.70
2017-12-01T03:15:34.534Z,28.47
2017-12-01T03:18:02.367Z,27.47
2017-12-01T03:20:30.232Z,28.20
2017-12-01T03:22:58.048Z,27.97
2017-12-01T03:25:25.875Z,27.60
2017-12-01T03:27:54.735Z,26.40
2017-12-01T03:30:22.572Z,28.47
2017-12-01T03:32:50.407Z,26.73
2017-12-01T03:35:18.279Z,26.70
2017-12-01T03:37:46.139Z,25.63
2017-12-01T03:40:13.976Z,27.90
2017-12-01T03:42:50.648Z,27.50
2017-12-01T03:45:18.479Z,27.37
2017-12-01T03:47:46.310Z,28.80
2017-12-01T03:50:14.165Z,27.13
2017-12-01T03:52:42.024Z,28.60
2017-12-01T03:55:09.856Z,27.20
2017-12-01T03:57:37.706Z,26.70
2017-12-01T04:00:05.554Z,30.03
2017-12-01T04:02:33.423Z,28.90
2017-12-01T04:05:01.272Z,28.70
2017-12-01T04:07:29.111Z,30.60
2017-12-01T04:09:57.200Z,29.00
2017-12-01T04:12:25.073Z,27.07
2017-12-01T04:14:52.908Z,28.43
2017-12-01T04:17:20.749Z,27.57
2017-12-01T04:19:48.607Z,27.70
2017-12-01T04:22:16.456Z,28.70
2017-12-01T04:24:44.283Z,28.03
2017-12-01T04:27:12.140Z,29.90
2017-12-01T04:29:39.975Z,31.77
2017-12-01T04:32:08.787Z,29.17
2017-12-01T04:34:36.645Z,30.20
2017-12-01T04:37:05.157Z,30.03
2017-12-01T04:39:33.090Z,31.43
2017-12-01T04:42:01.021Z,30.70
2017-12-01T04:44:28.873Z,32.57
2017-12-01T04:46:56.727Z,30.70
2017-12-01T04:49:24.583Z,29.90
2017-12-01T04:51:52.418Z,29.27
2017-12-01T04:54:20.255Z,28.40
2017-12-01T04:56:48.107Z,30.00
2017-12-01T04:59:15.932Z,29.60
2017-12-01T05:01:43.863Z,31.07
2017-12-01T05:04:11.756Z,30.43
2017-12-01T05:06:39.618Z,32.77
2017-12-01T05:09:07.492Z,32.53
2017-12-01T05:11:35.355Z,34.47
2017-12-01T05:14:03.235Z,32.87
2017-12-01T05:16:31.066Z,32.70
2017-12-01T05:18:58.918Z,33.50
2017-12-01T05:21:26.749Z,33.70
2017-12-01T05:23:54.649Z,36.10
2017-12-01T05:26:37.463Z,32.47
2017-12-01T05:29:05.416Z,32.77
2017-12-01T05:31:33.251Z,31.80
2017-12-01T05:34:01.108Z,32.43
2017-12-01T05:36:28.940Z,33.13
2017-12-01T05:38:56.763Z,33.53
2017-12-01T05:41:24.625Z,33.70
2017-12-01T05:43:52.469Z,31.40
2017-12-01T05:46:20.349Z,32.80
2017-12-01T05:48:48.207Z,32.77
2017-12-01T05:51:16.043Z,32.30
2017-12-01T05:53:43.867Z,30.47
2017-12-01T05:56:11.743Z,32.83
2017-12-01T05:58:39.583Z,31.87
2017-12-01T06:01:07.424Z,30.27
2017-12-01T06:03:35.280Z,31.80
2017-12-01T06:06:03.151Z,30.13
2017-12-01T06:08:31.017Z,31.33
2017-12-01T06:10:59.150Z,31.00
2017-12-01T06:13:26.998Z,30.10
2017-12-01T06:15:54.823Z,31.47
2017-12-01T06:18:22.692Z,31.20
2017-12-01T06:20:50.545Z,32.30
2017-12-01T06:23:18.391Z,31.27
2017-12-01T06:25:46.248Z,30.00
2017-12-01T06:28:14.075Z,29.60
2017-12-01T06:30:41.939Z,31.20
2017-12-01T06:33:09.809Z,30.37
2017-12-01T06:35:37.660Z,31.70
2017-12-01T06:38:05.503Z,31.07
2017-12-01T06:40:33.382Z,30.60
2017-12-01T06:43:01.229Z,31.23
2017-12-01T06:45:29.079Z,31.73
2017-12-01T06:47:56.953Z,33.03
2017-12-01T06:50:24.788Z,30.43
2017-12-01T06:52:52.644Z,31.77
2017-12-01T06:55:20.505Z,32.87
2017-12-01T06:57:48.339Z,32.00
2017-12-01T07:00:16.212Z,32.67
2017-12-01T07:02:44.079Z,32.17
2017-12-01T07:05:11.933Z,31.80
2017-12-01T07:07:39.959Z,30.73
2017-12-01T07:10:07.835Z,31.07
2017-12-01T07:12:35.664Z,31.03
2017-12-01T07:15:03.495Z,32.70
2017-12-01T07:17:31.347Z,30.60
2017-12-01T07:19:59.180Z,31.40
2017-12-01T07:22:27.011Z,30.60
2017-12-01T07:24:54.873Z,30.00
2017-12-01T07:27:24.362Z,28.90
2017-12-01T07:29:52.194Z,28.63
2017-12-01T07:32:20.064Z,29.57
2017-12-01T07:34:47.916Z,29.30
2017-12-01T07:37:16.446Z,30.50
2017-12-01T07:39:44.327Z,31.77
2017-12-01T07:42:12.175Z,29.77
2017-12-01T07:44:46.300Z,29.43
2017-12-01T07:47:14.164Z,29.67
2017-12-01T07:49:42.003Z,29.80
2017-12-01T07:52:09.878Z,28.27
2017-12-01T07:54:37.720Z,30.43
2017-12-01T07:57:05.552Z,29.10
2017-12-01T07:59:33.424Z,28.03
2017-12-01T08:02:01.292Z,26.83
2017-12-01T08:04:29.147Z,29.10
2017-12-01T08:06:57.019Z,27.90
2017-12-01T08:09:25.779Z,28.03
2017-12-01T08:11:53.651Z,28.43
2017-12-01T08:14:21.531Z,28.37
2017-12-01T08:16:55.511Z,28.13
2017-12-01T08:19:23.416Z,28.53
2017-12-01T08:21:57.289Z,28.50
2017-12-01T08:24:31.412Z,27.83
2017-12-01T08:26:59.275Z,30.53
2017-12-01T08:29:27.140Z,26.80
2017-12-01T08:31:55.784Z,28.00
2017-12-01T08:34:23.619Z,26.87
2017-12-01T08:36:51.448Z,27.93
2017-12-01T08:39:19.320Z,27.20
2017-12-01T08:41:47.172Z,26.60
2017-12-01T08:44:15.029Z,27.63
2017-12-01T08:46:42.892Z,26.90
2017-12-01T08:49:10.739Z,27.93
2017-12-01T08:51:38.588Z,27.30
2017-12-01T08:54:06.487Z,26.87
2017-12-01T08:56:34.336Z,24.97
2017-12-01T08:59:02.180Z,26.23
2017-12-01T09:01:30.051Z,26.63
2017-12-01T09:03:57.897Z,26.47
2017-12-01T09:06:25.796Z,27.30
2017-12-01T09:08:53.680Z,27.70
2017-12-01T09:11:21.575Z,26.83
2017-12-01T09:13:49.430Z,25.50
2017-12-01T09:16:17.307Z,26.20
2017-12-01T09:18:45.192Z,25.40
2017-12-01T09:21:13.186Z,26.00
2017-12-01T09:23:41.053Z,26.43
2017-12-01T09:26:08.931Z,25.77
2017-12-01T09:28:36.815Z,24.00
2017-12-01T09:31:04.747Z,24.10
2017-12-01T09:33:32.607Z,24.40
2017-12-01T09:36:00.496Z,24.20
2017-12-01T09:38:28.424Z,25.40
2017-12-01T09:40:56.272Z,22.70
2017-12-01T09:43:24.136Z,24.00
2017-12-01T09:45:52.003Z,23.67
2017-12-01T09:48:19.861Z,26.93
2017-12-01T09:50:47.704Z,24.10
2017-12-01T09:53:15.623Z,24.57
2017-12-01T09:55:43.515Z,22.77
2017-12-01T09:58:11.398Z,25.03
2017-12-01T10:00:39.508Z,24.40
2017-12-01T10:03:07.432Z,25.03
2017-12-01T10:05:35.292Z,25.43
2017-12-01T10:08:03.160Z,24.20
2017-12-01T10:10:30.991Z,23.50
2017-12-01T10:12:58.892Z,25.83
2017-12-01T10:15:26.795Z,23.13
2017-12-01T10:17:54.629Z,22.23
2017-12-01T10:20:22.528Z,24.03
2017-12-01T10:22:50.439Z,22.53
2017-12-01T10:25:18.286Z,22.17
2017-12-01T10:27:46.189Z,22.77
2017-12-01T10:30:14.065Z,23.67
2017-12-01T10:32:41.935Z,23.77
2017-12-01T10:35:09.815Z,23.17
2017-12-01T10:37:37.695Z,22.50
2017-12-01T10:40:05.557Z,22.43
2017-12-01T10:42:33.437Z,23.20
2017-12-01T10:45:01.324Z,23.60
2017-12-01T10:47:29.172Z,21.70
2017-12-01T10:49:57.006Z,22.70
2017-12-01T10:52:31.878Z,20.83
2017-12-01T10:54:59.736Z,21.90
2017-12-01T10:57:27.615Z,21.03
2017-12-01T10:59:55.484Z,21.90
2017-12-01T11:02:23.359Z,22.07
2017-12-01T11:04:51.217Z,20.00
2017-12-01T11:07:19.067Z,20.50
2017-12-01T11:09:46.957Z,21.00
2017-12-01T11:12:14.844Z,18.97
2017-12-01T11:14:42.753Z,21.40
2017-12-01T11:17:10.611Z,21.20
2017-12-01T11:19:38.459Z,20.33
2017-12-01T11:22:06.333Z,20.77
2017-12-01T11:24:34.175Z,19.70
2017-12-01T11:27:02.021Z,21.40
2017-12-01T11:29:29.932Z,20.70
2017-12-01T11:31:57.764Z,20.20
2017-12-01T11:34:25.603Z,21.07
2017-12-01T11:36:53.475Z,20.67
2017-12-01T11:39:21.318Z,20.90
2017-12-01T11:41:49.184Z,21.17
2017-12-01T11:44:17.068Z,19.93
2017-12-01T11:46:44.960Z,20.93
2017-12-01T11:49:12.827Z,21.17
2017-12-01T11:51:40.735Z,22.40
2017-12-01T11:54:08.659Z,22.30
2017-12-01T11:56:37.544Z,21.63
2017-12-01T11:59:05.408Z,21.10
2017-12-01T12:01:33.256Z,22.63
2017-12-01T12:04:01.128Z,23.10
2017-12-01T12:06:29.055Z,22.40
2017-12-01T12:08:56.919Z,21.87
2017-12-01T12:11:24.786Z,23.77
2017-12-01T12:13:52.679Z,23.63
2017-12-01T12:16:20.979Z,23.20
2017-12-01T12:18:48.847Z,23.77
2017-12-01T12:21:16.735Z,21.20
2017-12-01T12:23:44.575Z,22.53
2017-12-01T12:26:12.454Z,21.90
2017-12-01T12:28:40.344Z,23.03
2017-12-01T12:31:08.290Z,21.53
2017-12-01T12:33:36.235Z,22.10
2017-12-01T12:36:04.121Z,20.40
2017-12-01T12:38:31.984Z,21.50
2017-12-01T12:40:59.843Z,21.80
2017-12-01T12:43:27.707Z,21.00
2017-12-01T12:45:55.584Z,19.87
2017-12-01T12:48:23.471Z,20.87
2017-12-01T12:50:51.364Z,20.67
2017-12-01T12:53:19.230Z,17.40
2017-12-01T12:55:47.098Z,17.10
2017-12-01T12:58:15.020Z,18.60
2017-12-01T13:00:42.963Z,18.10
2017-12-01T13:03:10.811Z,28.73
2017-12-01T13:05:38.756Z,20.00
2017-12-01T13:08:06.629Z,17.57
2017-12-01T13:10:34.498Z,19.60
2017-12-01T13:13:02.386Z,20.00
2017-12-01T13:15:30.331Z,17.90
2017-12-01T13:17:58.357Z,26.30
2017-12-01T13:20:26.720Z,19.90
2017-12-01T13:22:54.676Z,22.90
2017-12-01T13:25:22.560Z,19.53
2017-12-01T13:27:50.460Z,17.70
2017-12-01T13:30:18.324Z,18.20
2017-12-01T13:32:46.256Z,20.00
2017-12-01T13:35:14.194Z,18.97
2017-12-01T13:37:42.151Z,22.17
2017-12-01T13:40:10.148Z,20.80
2017-12-01T13:42:38.072Z,20.27
2017-12-01T13:45:05.990Z,19.30
2017-12-01T13:47:33.855Z,18.00
2017-12-01T13:50:01.768Z,18.80
2017-12-01T13:52:29.607Z,18.60
2017-12-01T13:54:57.560Z,18.27
2017-12-01T13:57:25.423Z,20.97
2017-12-01T13:59:53.280Z,19.63
2017-12-01T14:02:21.152Z,27.10
2017-12-01T14:04:49.057Z,19.93
2017-12-01T14:07:16.912Z,20.83
2017-12-01T14:09:44.779Z,19.63
2017-12-01T14:12:12.666Z,20.20
2017-12-01T14:14:40.584Z,18.53
2017-12-01T14:17:08.435Z,20.73
2017-12-01T14:19:36.332Z,18.00
2017-12-01T14:22:04.170Z,17.33
2017-12-01T14:24:32.053Z,19.53
2017-12-01T14:26:59.967Z,17.50
2017-12-01T14:29:27.809Z,18.27
2017-12-01T14:31:55.645Z,20.97
2017-12-01T14:34:23.532Z,25.53
2017-12-01T14:36:51.383Z,18.87
2017-12-01T14:39:19.212Z,17.80
2017-12-01T14:41:47.083Z,17.93
2017-12-01T14:44:14.923Z,17.30
2017-12-01T14:46:42.761Z,17.17
2017-12-01T14:49:10.640Z,17.13
2017-12-01T14:51:38.504Z,17.33
2017-12-01T14:54:06.344Z,17.30
2017-12-01T14:56:34.261Z,17.47
2017-12-01T14:59:02.096Z,17.07
2017-12-01T15:01:29.948Z,16.67
2017-12-01T15:03:57.829Z,16.40
2017-12-01T15:06:25.702Z,17.90
2017-12-01T15:08:53.547Z,16.60
2017-12-01T15:11:21.463Z,16.60
2017-12-01T15:13:49.368Z,17.80
2017-12-01T15:16:17.225Z,17.50
2017-12-01T15:18:45.101Z,17.23
2017-12-01T15:21:13.027Z,17.07
2017-12-01T15:23:40.899Z,16.77
2017-12-01T15:26:15.704Z,16.73
2017-12-01T15:28:43.583Z,16.17
2017-12-01T15:31:11.436Z,16.93
2017-12-01T15:33:39.328Z,17.40
2017-12-01T15:36:07.194Z,17.17
2017-12-01T15:38:35.039Z,17.97
2017-12-01T15:41:03.055Z,17.63
2017-12-01T15:43:30.921Z,17.77
2017-12-01T15:45:58.795Z,17.23
2017-12-01T15:48:26.727Z,18.20
2017-12-01T15:50:54.595Z,17.53
2017-12-01T15:53:22.480Z,17.80
2017-12-01T15:55:50.369Z,16.80
2017-12-01T15:58:18.222Z,17.60
2017-12-01T16:00:46.064Z,18.10
2017-12-01T16:03:14.007Z,18.13
2017-12-01T16:05:41.908Z,17.53
2017-12-01T16:08:09.767Z,19.27
2017-12-01T16:10:37.698Z,19.03
2017-12-01T16:13:05.617Z,17.00
2017-12-01T16:15:33.541Z,22.97
2017-12-01T16:18:01.443Z,19.83
2017-12-01T16:20:29.304Z,18.77
2017-12-01T16:22:57.310Z,20.43
2017-12-01T16:25:25.209Z,19.50
2017-12-01T16:27:53.049Z,18.90
2017-12-01T16:30:20.890Z,19.70
2017-12-01T16:32:51.255Z,22.23
2017-12-01T16:35:16.798Z,22.40
2017-12-01T16:37:44.625Z,22.43
2017-12-01T16:40:12.537Z,21.63
2017-12-01T16:42:40.411Z,19.50
2017-12-01T16:45:08.269Z,21.23
2017-12-01T16:47:36.164Z,23.10
2017-12-01T16:50:04.068Z,21.80
2017-12-01T16:52:31.921Z,24.17
2017-12-01T16:54:59.788Z,21.30
2017-12-01T16:57:29.421Z,22.53
2017-12-01T16:59:57.275Z,22.07
2017-12-01T17:02:25.390Z,25.10
2017-12-01T17:04:53.252Z,27.60
2017-12-01T17:07:21.132Z,27.10
2017-12-01T17:09:49.031Z,26.03
2017-12-01T17:12:16.873Z,21.33
2017-12-01T17:14:53.612Z,23.43
2017-12-01T17:17:21.480Z,21.07
2017-12-01T17:19:49.324Z,25.10
2017-12-01T17:22:17.234Z,21.10
2017-12-01T17:24:45.128Z,23.13
2017-12-01T17:27:13.087Z,24.57
2017-12-01T17:29:41.027Z,22.70
2017-12-01T17:32:08.995Z,22.20
2017-12-01T17:34:36.864Z,21.67
2017-12-01T17:37:04.761Z,23.00
2017-12-01T17:39:32.600Z,22.27
2017-12-01T17:42:00.449Z,22.27
2017-12-01T17:44:28.331Z,25.30
2017-12-01T17:46:56.171Z,24.43
2017-12-01T17:49:24.011Z,21.60
2017-12-01T17:51:51.920Z,22.47
2017-12-01T17:54:19.792Z,22.57
2017-12-01T17:56:47.661Z,20.83
2017-12-01T17:59:15.530Z,20.80
2017-12-01T18:01:43.407Z,22.80
2017-12-01T18:04:11.263Z,21.17
2017-12-01T18:06:39.147Z,22.10
2017-12-01T18:09:06.992Z,22.80
2017-12-01T18:11:34.831Z,23.07
2017-12-01T18:14:02.763Z,22.20
2017-12-01T18:16:30.611Z,22.60
2017-12-01T18:18:58.459Z,23.60
2017-12-01T18:21:26.396Z,23.97
2017-12-01T18:23:54.248Z,22.53
2017-12-01T18:26:22.149Z,21.80
2017-12-01T18:28:50.043Z,24.73
2017-12-01T18:31:17.880Z,23.90
2017-12-01T18:33:45.726Z,24.00
2017-12-01T18:36:13.682Z,23.60
2017-12-01T18:38:41.615Z,22.00
2017-12-01T18:41:09.487Z,22.50
2017-12-01T18:43:37.401Z,23.83
2017-12-01T18:46:05.248Z,24.43
2017-12-01T18:48:33.103Z,24.30
2017-12-01T18:51:01.017Z,24.03
2017-12-01T18:53:28.889Z,23.40
2017-12-01T18:55:56.745Z,24.20
2017-12-01T18:58:24.897Z,25.40
2017-12-01T19:00:52.826Z,23.50
2017-12-01T19:03:20.974Z,24.63
2017-12-01T19:05:49.350Z,28.90
2017-12-01T19:08:17.201Z,26.80
2017-12-01T19:10:45.045Z,27.30
2017-12-01T19:13:12.939Z,37.57
2017-12-01T19:15:40.798Z,24.27
2017-12-01T19:18:08.685Z,28.13
2017-12-01T19:20:36.573Z,25.30
2017-12-01T19:23:04.434Z,27.80
2017-12-01T19:25:32.280Z,26.97
2017-12-01T19:28:00.208Z,27.63
2017-12-01T19:30:28.080Z,25.47
2017-12-01T19:32:55.962Z,25.83
2017-12-01T19:35:26.566Z,26.20
2017-12-01T19:37:54.899Z,27.77
2017-12-01T19:40:22.742Z,31.20
2017-12-01T19:42:50.632Z,27.37
2017-12-01T19:45:18.501Z,26.73
2017-12-01T19:47:46.367Z,25.97
2017-12-01T19:50:14.268Z,26.80
2017-12-01T19:52:42.200Z,28.23
2017-12-01T19:55:10.062Z,26.17
2017-12-01T19:57:37.948Z,30.30
2017-12-01T20:00:05.793Z,34.73
2017-12-01T20:02:33.636Z,31.30
2017-12-01T20:05:01.530Z,28.57
2017-12-01T20:07:29.400Z,26.93
2017-12-01T20:09:57.252Z,27.67
2017-12-01T20:12:25.124Z,26.73
2017-12-01T20:14:52.967Z,30.37
2017-12-01T20:17:20.836Z,30.10
2017-12-01T20:19:48.709Z,29.60
2017-12-01T20:22:16.556Z,28.33
2017-12-01T20:24:44.563Z,30.73
2017-12-01T20:27:12.486Z,27.30
2017-12-01T20:29:40.397Z,30.77
2017-12-01T20:32:08.256Z,28.77
2017-12-01T20:34:36.154Z,33.80
2017-12-01T20:37:04.011Z,29.13
2017-12-01T20:39:31.867Z,30.80
2017-12-01T20:41:59.759Z,31.83
2017-12-01T20:44:27.626Z,28.10
2017-12-01T20:46:55.464Z,26.07
2017-12-01T20:49:23.437Z,26.20
2017-12-01T20:51:51.336Z,29.73
2017-12-01T20:54:19.217Z,32.37
2017-12-01T20:56:47.435Z,30.67
2017-12-01T20:59:15.444Z,29.87
2017-12-01T21:01:43.591Z,31.07
2017-12-01T21:04:11.559Z,32.37
2017-12-01T21:06:39.490Z,28.47
2017-12-01T21:09:07.345Z,28.80
2017-12-01T21:11:35.266Z,27.30
2017-12-01T21:14:04.423Z,27.50
2017-12-01T21:16:34.584Z,27.27
2017-12-01T21:19:02.548Z,26.90
2017-12-01T21:21:30.416Z,26.10
2017-12-01T21:23:58.299Z,29.37
2017-12-01T21:26:26.177Z,26.47
2017-12-01T21:28:54.011Z,31.50
2017-12-01T21:31:21.959Z,27.13
2017-12-01T21:33:49.856Z,27.80
2017-12-01T21:36:17.683Z,27.77
2017-12-01T21:38:45.563Z,29.70
2017-12-01T21:41:13.464Z,27.97
2017-12-01T21:43:41.356Z,27.90
2017-12-01T21:46:09.248Z,30.57
2017-12-01T21:48:37.121Z,32.13
2017-12-01T21:51:04.980Z,29.97
2017-12-01T21:53:32.851Z,28.30
2017-12-01T21:56:00.757Z,27.23
2017-12-01T21:58:28.593Z,28.00
2017-12-01T22:00:56.482Z,28.63
2017-12-01T22:03:24.336Z,32.60
2017-12-01T22:05:52.177Z,28.20
2017-12-01T22:08:20.084Z,27.03
2017-12-01T22:10:47.963Z,26.80
2017-12-01T22:13:15.829Z,28.93
2017-12-01T22:15:43.711Z,26.40
2017-12-01T22:18:11.575Z,30.73
2017-12-01T22:20:39.429Z,28.37
2017-12-01T22:23:07.313Z,27.53
2017-12-01T22:25:35.170Z,29.07
2017-12-01T22:28:03.030Z,28.60
2017-12-01T22:30:30.939Z,29.10
2017-12-01T22:32:58.840Z,28.10
2017-12-01T22:35:26.746Z,25.70
2017-12-01T22:37:54.647Z,27.40
2017-12-01T22:40:22.509Z,28.10
2017-12-01T22:42:50.362Z,26.60
2017-12-01T22:45:18.275Z,27.80
2017-12-01T22:47:46.131Z,26.53
2017-12-01T22:50:13.993Z,24.33
2017-12-01T22:52:41.905Z,25.60
2017-12-01T22:55:09.751Z,25.70
2017-12-01T22:57:37.680Z,22.83
2017-12-01T23:00:05.551Z,25.50
2017-12-01T23:02:33.411Z,27.83
2017-12-01T23:05:01.243Z,25.77
2017-12-01T23:07:29.126Z,25.73
2017-12-01T23:09:56.975Z,25.90
2017-12-01T23:12:24.839Z,27.07
2017-12-01T23:14:52.711Z,27.47
2017-12-01T23:17:20.584Z,25.17
2017-12-01T23:19:48.441Z,23.07
2017-12-01T23:22:16.351Z,21.93
2017-12-01T23:24:44.216Z,24.63
2017-12-01T23:27:12.092Z,25.77
2017-12-01T23:29:39.964Z,25.27
2017-12-01T23:32:07.862Z,24.83
2017-12-01T23:34:35.780Z,22.60
2017-12-01T23:37:03.680Z,24.60
2017-12-01T23:39:31.547Z,23.57
2017-12-01T23:41:59.409Z,23.97
2017-12-01T23:44:27.387Z,23.83
2017-12-01T23:46:56.247Z,23.73
2017-12-01T23:49:24.077Z,25.10
2017-12-01T23:51:51.959Z,24.43
2017-12-01T23:54:19.805Z,26.70
2017-12-01T23:56:47.685Z,22.90
2017-12-01T23:59:15.589Z,25.37
